Atlas, Illinois
Current Conditions -  °F | °C
As of 6:15 AM on Sunday 25 Jan 2015 (Local Time) from KPPQ Reporting Station
Overcast Overcast  
Wind Chill:   Ceiling: 3800
Heat Index:   Visibility: 10mi
Dew Point:   Wind: 5mph
Humidity: 90%   Direction: 230°SW
Pressure: 29.59"   Gusts: NA
Location:  39.5365°N, 91.0118°W
Report Text: KPPQ 251215Z AUTO 23004KT 10SM OVC038 06/04 A2959 RMK AO2 T00560040
Loading
Personal Weather Stations






























Interactive Weather Map New forecast layout! Learn more

10-Day Weather Forecast

Advertisements
Track Severe Weather on mobile